Time;durP1;ratioP1;P1;durP2;ratioP2;P2;SDS_P1;SDS_P2;PMS_P1;PMS_P2;Temp;Humidity;BMP_temperature;BMP_pressure;BME280_temperature;BME280_humidity;BME280_pressure;Samples;Min_cycle;Max_cycle;Signal;HPM_P1;HPM_P2
2021/09/24 00:01:02;;;;;;;22.45;15.55;;;;;;;-144.51;100.00;69251.94;5024668;28;20501;-62
2021/09/24 00:03:46;;;;;;;27.73;17.02;;;;;;;-144.51;100.00;69251.94;5028527;28;20045;-62
2021/09/24 00:06:31;;;;;;;;;;;;;;;-144.51;100.00;69251.94;5028010;28;20029;-62
2021/09/24 00:09:16;;;;;;;28.73;16.08;;;;;;;-144.51;100.00;69251.94;5025693;28;19913;-62
2021/09/24 00:12:00;;;;;;;25.92;15.38;;;;;;;-144.51;100.00;69251.94;5025426;28;20568;-61
2021/09/24 00:14:45;;;;;;;28.25;16.27;;;;;;;-144.51;100.00;69251.94;5029258;28;20041;-61
2021/09/24 00:17:30;;;;;;;;;;;;;;;-144.51;100.00;69251.94;5026251;28;20041;-61
2021/09/24 00:20:15;;;;;;;21.83;15.35;;;;;;;-144.51;100.00;69251.94;5024787;28;19913;-61
2021/09/24 00:23:00;;;;;;;;;;;;;;;-144.51;100.00;69251.94;5029726;28;20050;-61
2021/09/24 00:25:45;;;;;;;28.63;16.10;;;;;;;-144.51;100.00;69251.94;5029039;28;19913;-61
2021/09/24 00:28:30;;;;;;;32.40;16.38;;;;;;;-144.51;100.00;69251.94;5026004;28;20037;-62
2021/09/24 00:31:15;;;;;;;27.15;15.05;;;;;;;-144.51;100.00;69251.94;5028429;28;20041;-62
2021/09/24 00:34:00;;;;;;;15.77;10.80;;;;;;;-144.51;100.00;69251.94;5025319;28;20053;-61
2021/09/24 00:36:45;;;;;;;28.42;16.17;;;;;;;-144.51;100.00;69251.94;5025606;28;20038;-62
2021/09/24 00:39:30;;;;;;;24.88;15.43;;;;;;;-144.51;100.00;69251.94;5029748;28;20509;-61
2021/09/24 00:42:15;;;;;;;23.33;17.10;;;;;;;-144.51;100.00;69251.94;5026618;28;20042;-61
2021/09/24 00:45:00;;;;;;;28.75;16.70;;;;;;;-144.51;100.00;69251.94;5025069;28;20041;-61
2021/09/24 00:47:45;;;;;;;;;;;;;;;-144.51;100.00;69251.94;5029174;28;20041;-61
2021/09/24 00:50:29;;;;;;;26.13;15.95;;;;;;;-144.51;100.00;69251.94;5019087;28;19913;-61
2021/09/24 00:53:14;;;;;;;;;;;;;;;-144.51;100.00;69251.94;5024794;28;20045;-61
2021/09/24 00:55:59;;;;;;;23.95;14.18;;;;;;;-144.51;100.00;69251.94;5029375;28;20373;-61
2021/09/24 00:58:44;;;;;;;23.05;13.82;;;;;;;-144.51;100.00;69251.94;5026374;28;20046;-61
2021/09/24 01:01:29;;;;;;;;;;;;;;;-144.51;100.00;69251.94;5024728;28;20034;-61
2021/09/24 01:04:13;;;;;;;21.45;15.70;;;;;;;-144.51;100.00;69251.94;5029056;28;19913;-61
2021/09/24 01:06:59;;;;;;;24.95;16.10;;;;;;;-144.51;100.00;69251.94;5028332;28;20037;-62
2021/09/24 01:09:44;;;;;;;27.42;16.67;;;;;;;-144.51;100.00;69251.94;5026474;28;20045;-61
2021/09/24 01:12:30;;;;;;;23.48;16.50;;;;;;;-144.51;100.00;69251.94;5029391;28;20041;-61
2021/09/24 01:15:20;;;;;;;27.50;16.63;;;;;;;-144.51;100.00;69251.94;5026534;28;20434;-62
2021/09/24 01:18:05;;;;;;;26.42;17.10;;;;;;;-144.51;100.00;69251.94;5024774;28;20033;-61
2021/09/24 01:20:53;;;;;;;23.73;16.15;;;;;;;-144.51;100.00;69251.94;5028599;28;20524;-61
2021/09/24 01:23:38;;;;;;;23.15;15.88;;;;;;;-144.51;100.00;69251.94;5026844;28;20038;-61
2021/09/24 01:26:23;;;;;;;31.90;15.02;;;;;;;-144.51;100.00;69251.94;5025567;28;20037;-61
2021/09/24 01:29:08;;;;;;;;;;;;;;;-144.51;100.00;69251.94;5023425;28;20041;-62
2021/09/24 01:31:52;;;;;;;26.02;14.52;;;;;;;-144.51;100.00;69251.94;5026522;28;19913;-62
2021/09/24 01:34:38;;;;;;;23.13;14.63;;;;;;;-144.51;100.00;69251.94;5024309;28;20037;-62
2021/09/24 01:37:23;;;;;;;19.23;14.38;;;;;;;-144.51;100.00;69251.94;5026373;28;20033;-62
2021/09/24 01:40:13;;;;;;;22.42;14.10;;;;;;;-144.51;100.00;69251.94;5024592;28;20038;-62
2021/09/24 01:42:58;;;;;;;26.15;15.10;;;;;;;-144.51;100.00;69251.94;5025976;28;20042;-62
2021/09/24 01:45:43;;;;;;;21.45;14.27;;;;;;;-144.51;100.00;69251.94;5021613;28;20033;-62
2021/09/24 01:48:28;;;;;;;;;;;;;;;-144.51;100.00;69251.94;5024817;28;20041;-62
2021/09/24 01:51:12;;;;;;;25.33;14.23;;;;;;;-144.51;100.00;69251.94;5024775;28;20377;-61
2021/09/24 01:53:58;;;;;;;29.73;15.30;;;;;;;-144.51;100.00;69251.94;5023780;28;20045;-61
2021/09/24 01:56:43;;;;;;;22.77;12.45;;;;;;;-144.51;100.00;69251.94;5027492;28;20037;-62
2021/09/24 01:59:27;;;;;;;15.82;11.52;;;;;;;-144.51;100.00;69251.94;5019967;28;20046;-62
2021/09/24 02:02:13;;;;;;;27.88;15.30;;;;;;;-144.51;100.00;69251.94;5022149;28;20038;-62
2021/09/24 02:09:35;;;;;;;;;;;;;;;;;;;;;
2021/09/24 02:12:24;;;;;;;21.98;15.23;;;;;;;-144.51;100.00;69251.94;5016083;28;20041;-62
2021/09/24 02:15:10;;;;;;;21.17;15.20;;;;;;;-144.51;100.00;69251.94;5024075;28;20046;-62
2021/09/24 02:17:55;;;;;;;24.63;16.55;;;;;;;-144.51;100.00;69251.94;5027438;28;20041;-63
2021/09/24 02:20:41;;;;;;;22.63;14.70;;;;;;;-144.51;100.00;69251.94;5025524;28;20421;-62
2021/09/24 02:23:27;;;;;;;27.60;15.48;;;;;;;-144.51;100.00;69251.94;5023444;28;20045;-62
2021/09/24 02:26:12;;;;;;;23.27;14.52;;;;;;;-144.51;100.00;69251.94;5029230;28;20045;-61
2021/09/24 02:28:57;;;;;;;20.33;14.70;;;;;;;-144.51;100.00;69251.94;5022434;28;20053;-62
2021/09/24 02:31:42;;;;;;;21.08;14.32;;;;;;;-144.51;100.00;69251.94;5026322;28;20050;-61
2021/09/24 02:34:27;;;;;;;23.08;14.52;;;;;;;-144.51;100.00;69251.94;5028437;28;20041;-61
2021/09/24 02:37:12;;;;;;;26.42;16.52;;;;;;;-144.51;100.00;69251.94;5024434;28;20041;-62
2021/09/24 02:39:57;;;;;;;28.50;14.52;;;;;;;-144.51;100.00;69251.94;5022096;28;20045;-61
2021/09/24 02:42:42;;;;;;;24.83;15.68;;;;;;;-144.51;100.00;69251.94;5023105;28;20460;-61
2021/09/24 02:45:28;;;;;;;22.65;15.80;;;;;;;-144.51;100.00;69251.94;5026733;28;20033;-61
2021/09/24 02:48:13;;;;;;;;;;;;;;;-144.51;100.00;69251.94;5025159;28;20041;-61
2021/09/24 02:50:57;;;;;;;22.45;14.57;;;;;;;-144.51;100.00;69251.94;5021676;28;20277;-61
2021/09/24 02:53:43;;;;;;;23.85;14.55;;;;;;;-144.51;100.00;69251.94;5027306;28;20038;-61
2021/09/24 02:56:28;;;;;;;25.25;14.98;;;;;;;-144.51;100.00;69251.94;5023950;28;20037;-61
2021/09/24 02:59:13;;;;;;;21.88;15.43;;;;;;;-144.51;100.00;69251.94;5021235;28;20490;-61
2021/09/24 03:01:58;;;;;;;;;;;;;;;-144.51;100.00;69251.94;5024470;28;20050;-62
2021/09/24 03:04:42;;;;;;;26.15;13.82;;;;;;;-144.51;100.00;69251.94;5026000;28;20610;-62
2021/09/24 03:07:27;;;;;;;25.45;17.38;;;;;;;-144.51;100.00;69251.94;5024944;28;20041;-62
2021/09/24 03:10:13;;;;;;;22.88;15.00;;;;;;;-144.51;100.00;69251.94;5030025;28;20041;-62
2021/09/24 03:12:58;;;;;;;21.00;15.25;;;;;;;-144.51;100.00;69251.94;5028005;28;20059;-62
2021/09/24 03:15:43;;;;;;;;;;;;;;;-144.51;100.00;69251.94;5027739;28;20041;-62
2021/09/24 03:18:28;;;;;;;23.27;13.55;;;;;;;-144.51;100.00;69251.94;5034995;28;19913;-62
2021/09/24 03:21:13;;;;;;;24.50;14.23;;;;;;;-144.51;100.00;69251.94;5027962;28;20045;-62
2021/09/24 03:23:58;;;;;;;25.58;14.88;;;;;;;-144.51;100.00;69251.94;5025760;28;20037;-62
2021/09/24 03:26:44;;;;;;;16.85;12.23;;;;;;;-144.51;100.00;69251.94;5034400;28;20054;-61
2021/09/24 03:29:28;;;;;;;27.15;15.20;;;;;;;-144.51;100.00;69251.94;5026313;28;20041;-61
2021/09/24 03:32:21;;;;;;;24.52;16.02;;;;;;;-144.51;100.00;69251.94;5026421;28;20496;-62
2021/09/24 03:35:06;;;;;;;23.70;15.75;;;;;;;-144.51;100.00;69251.94;5033294;28;20045;-61
2021/09/24 03:37:51;;;;;;;24.85;16.13;;;;;;;-144.51;100.00;69251.94;5030617;28;20049;-62
2021/09/24 03:40:35;;;;;;;28.33;16.73;;;;;;;-144.51;100.00;69251.94;5024936;28;20041;-62
2021/09/24 03:43:20;;;;;;;;;;;;;;;-144.51;100.00;69251.94;5032757;28;20037;-62
2021/09/24 03:46:05;;;;;;;23.00;16.17;;;;;;;-144.51;100.00;69251.94;5029829;28;19917;-62
2021/09/24 03:48:50;;;;;;;19.05;12.52;;;;;;;-144.51;100.00;69251.94;5024890;28;20045;-62
2021/09/24 03:51:35;;;;;;;;;;;;;;;-144.51;100.00;69251.94;5033435;28;20048;-62
2021/09/24 03:54:19;;;;;;;25.98;16.13;;;;;;;-144.51;100.00;69251.94;5029393;28;19913;-62
2021/09/24 03:57:04;;;;;;;18.60;14.63;;;;;;;-144.51;100.00;69251.94;5027426;28;20049;-62
2021/09/24 03:59:48;;;;;;;;;;;;;;;-144.51;100.00;69251.94;5023878;28;20401;-62
2021/09/24 04:02:33;;;;;;;22.88;15.90;;;;;;;-144.51;100.00;69251.94;5027654;28;19913;-62
2021/09/24 04:05:18;;;;;;;;;;;;;;;-144.51;100.00;69251.94;5026575;28;20046;-62
2021/09/24 04:08:03;;;;;;;26.30;17.27;;;;;;;-144.51;100.00;69251.94;5025873;28;20380;-62
2021/09/24 04:10:48;;;;;;;;;;;;;;;-144.51;100.00;69251.94;5031886;28;20037;-62
2021/09/24 04:13:32;;;;;;;25.20;15.85;;;;;;;-144.51;100.00;69251.94;5027909;28;19912;-62
2021/09/24 04:16:17;;;;;;;;;;;;;;;-144.51;100.00;69251.94;5027524;28;20517;-62
2021/09/24 04:19:02;;;;;;;23.58;16.65;;;;;;;-144.51;100.00;69251.94;5031465;28;19941;-61
2021/09/24 04:21:48;;;;;;;;;;;;;;;-144.51;100.00;69251.94;5031828;28;20045;-61
2021/09/24 04:24:32;;;;;;;32.50;18.20;;;;;;;-144.51;100.00;69251.94;5021383;28;19913;-62
2021/09/24 04:27:17;;;;;;;;;;;;;;;-144.51;100.00;69251.94;5030148;28;20033;-62
2021/09/24 04:30:04;;;;;;;32.22;16.95;;;;;;;-144.51;100.00;69251.94;5030491;28;19916;-62
2021/09/24 04:32:49;;;;;;;49.72;18.83;;;;;;;-144.51;100.00;69251.94;5027070;28;20431;-61
2021/09/24 04:35:34;;;;;;;48.22;17.48;;;;;;;-144.51;100.00;69251.94;5027807;28;20421;-61
2021/09/24 04:38:18;;;;;;;41.53;14.50;;;;;;;-144.51;100.00;69251.94;5028406;28;20045;-62
2021/09/24 04:41:03;;;;;;;;;;;;;;;-144.51;100.00;69251.94;5025909;28;20049;-61
2021/09/24 04:43:48;;;;;;;77.03;24.20;;;;;;;-144.51;100.00;69251.94;5029880;28;20365;-61
2021/09/24 04:46:33;;;;;;;;;;;;;;;-144.51;100.00;69251.94;5026390;28;20042;-61
2021/09/24 04:49:18;;;;;;;46.72;16.30;;;;;;;-144.51;100.00;69251.94;5024126;28;19913;-61
2021/09/24 04:52:03;;;;;;;;;;;;;;;-144.51;100.00;69251.94;5030387;28;20045;-62
2021/09/24 04:54:49;;;;;;;23.00;13.15;;;;;;;-144.51;100.00;69251.94;5025891;28;19913;-62
2021/09/24 04:57:35;;;;;;;46.33;18.80;;;;;;;-144.51;100.00;69251.94;5027107;28;20041;-62
2021/09/24 05:00:20;;;;;;;42.10;17.95;;;;;;;-144.51;100.00;69251.94;5026805;28;20033;-62
2021/09/24 05:03:06;;;;;;;36.65;16.88;;;;;;;-144.51;100.00;69251.94;5027382;28;20037;-62
2021/09/24 05:05:51;;;;;;;19.40;13.93;;;;;;;-144.51;100.00;69251.94;5030367;28;20046;-62
2021/09/24 05:08:36;;;;;;;29.60;16.92;;;;;;;-144.51;100.00;69251.94;5021706;28;20042;-61
2021/09/24 05:11:21;;;;;;;;;;;;;;;-144.51;100.00;69251.94;5033881;28;20050;-61
2021/09/24 05:14:06;;;;;;;27.23;17.88;;;;;;;-144.51;100.00;69251.94;5033146;28;19913;-62
2021/09/24 05:16:50;;;;;;;31.27;17.00;;;;;;;-144.51;100.00;69251.94;5025282;28;20045;-61
2021/09/24 05:19:35;;;;;;;;;;;;;;;-144.51;100.00;69251.94;5025316;28;20474;-62
2021/09/24 05:22:20;;;;;;;25.15;15.77;;;;;;;-144.51;100.00;69251.94;5032672;28;19913;-61
2021/09/24 05:25:05;;;;;;;24.98;17.15;;;;;;;-144.51;100.00;69251.94;5026207;28;20501;-62
2021/09/24 05:27:51;;;;;;;27.65;18.52;;;;;;;-144.51;100.00;69251.94;5027512;28;20061;-62
2021/09/24 05:30:36;;;;;;;25.95;15.82;;;;;;;-144.51;100.00;69251.94;5028203;28;20046;-62
2021/09/24 05:33:21;;;;;;;25.73;17.48;;;;;;;-144.51;100.00;69251.94;5023940;28;20049;-62
2021/09/24 05:36:10;;;;;;;25.38;17.17;;;;;;;-144.51;100.00;69251.94;5029822;28;20034;-62
2021/09/24 05:38:55;;;;;;;31.20;18.55;;;;;;;-144.51;100.00;69251.94;5023405;28;20049;-62
2021/09/24 05:41:40;;;;;;;;;;;;;;;-144.51;100.00;69251.94;5024780;28;20452;-62
2021/09/24 05:44:25;;;;;;;34.75;18.40;;;;;;;-144.51;100.00;69251.94;5025801;28;19914;-62
2021/09/24 05:47:09;;;;;;;31.02;19.20;;;;;;;-144.51;100.00;69251.94;5022453;28;20034;-62
2021/09/24 05:49:55;;;;;;;28.60;19.83;;;;;;;-144.51;100.00;69251.94;5027032;28;20046;-62
2021/09/24 05:52:49;;;;;;;31.60;20.08;;;;;;;-144.51;100.00;69251.94;5027146;28;20080;-62
2021/09/24 05:55:34;;;;;;;25.65;20.35;;;;;;;-144.51;100.00;69251.94;5022701;28;20571;-61
2021/09/24 05:58:19;;;;;;;;;;;;;;;-144.51;100.00;69251.94;5026648;28;20520;-62
2021/09/24 06:01:04;;;;;;;30.27;18.77;;;;;;;-144.51;100.00;69251.94;5025618;28;19920;-62
2021/09/24 06:03:49;;;;;;;31.58;19.25;;;;;;;-144.51;100.00;69251.94;5021348;28;20042;-62
2021/09/24 06:06:34;;;;;;;28.02;19.65;;;;;;;-144.51;100.00;69251.94;5026470;28;20042;-62
2021/09/24 06:09:18;;;;;;;;;;;;;;;-144.51;100.00;69251.94;5021187;28;20037;-62
2021/09/24 06:12:03;;;;;;;36.95;19.85;;;;;;;-144.51;100.00;69251.94;5021339;28;20621;-67
2021/09/24 06:14:48;;;;;;;39.33;21.40;;;;;;;-144.51;100.00;69251.94;5028855;28;20042;-61
2021/09/24 06:17:33;;;;;;;;;;;;;;;-144.51;100.00;69251.94;5024643;28;20038;-61
2021/09/24 06:20:19;;;;;;;47.70;21.33;;;;;;;-144.51;100.00;69251.94;5023044;28;19913;-61
2021/09/24 06:23:04;;;;;;;56.58;21.55;;;;;;;-144.51;100.00;69251.94;5025331;28;20049;-62
2021/09/24 06:25:48;;;;;;;33.13;19.88;;;;;;;-144.51;100.00;69251.94;5024240;28;20038;-62
2021/09/24 06:28:33;;;;;;;33.40;20.20;;;;;;;-144.51;100.00;69251.94;5022880;28;20045;-61
2021/09/24 06:31:19;;;;;;;31.10;17.92;;;;;;;-144.51;100.00;69251.94;5027248;28;20041;-62
2021/09/24 06:34:04;;;;;;;;;;;;;;;-144.51;100.00;69251.94;5026500;28;20409;-62
2021/09/24 06:36:48;;;;;;;34.33;16.45;;;;;;;-144.51;100.00;69251.94;5023986;28;19921;-63
2021/09/24 06:39:33;;;;;;;28.92;19.80;;;;;;;-144.51;100.00;69251.94;5027070;28;20038;-62
2021/09/24 06:42:18;;;;;;;;;;;;;;;-144.51;100.00;69251.94;5023878;28;20037;-62
2021/09/24 06:45:08;;;;;;;31.77;18.85;;;;;;;-144.51;100.00;69251.94;5026858;28;19913;-62
2021/09/24 06:47:52;;;;;;;34.47;17.27;;;;;;;-144.51;100.00;69251.94;5030009;28;20429;-62
2021/09/24 06:50:37;;;;;;;;;;;;;;;-144.51;100.00;69251.94;5025919;28;20050;-63
2021/09/24 06:53:22;;;;;;;41.28;18.17;;;;;;;-144.51;100.00;69251.94;5024550;28;19921;-62
2021/09/24 06:56:08;;;;;;;31.48;17.58;;;;;;;-144.51;100.00;69251.94;5028070;28;20045;-62
2021/09/24 06:58:53;;;;;;;33.50;19.10;;;;;;;-144.51;100.00;69251.94;5023004;28;20038;-62
2021/09/24 07:01:38;;;;;;;;;;;;;;;-144.51;100.00;69251.94;5024096;28;20041;-62
2021/09/24 07:04:22;;;;;;;35.00;18.00;;;;;;;-144.51;100.00;69251.94;5022617;28;19917;-62
2021/09/24 07:07:08;;;;;;;40.30;18.63;;;;;;;-144.51;100.00;69251.94;5026526;28;20037;-63
2021/09/24 07:09:56;;;;;;;30.85;16.85;;;;;;;-144.51;100.00;69251.94;5023183;28;20038;-62
2021/09/24 07:12:42;;;;;;;35.30;18.38;;;;;;;-144.51;100.00;69251.94;5021972;28;20038;-62
2021/09/24 07:15:27;;;;;;;28.80;19.02;;;;;;;-144.51;100.00;69251.94;5026317;28;20033;-62
2021/09/24 07:18:11;;;;;;;29.63;18.85;;;;;;;-144.51;100.00;69251.94;5024429;28;20041;-63
2021/09/24 07:20:56;;;;;;;27.73;18.52;;;;;;;-144.51;100.00;69251.94;5021667;28;20410;-63
2021/09/24 07:23:41;;;;;;;35.28;18.95;;;;;;;-144.51;100.00;69251.94;5026073;28;20042;-62
2021/09/24 07:26:27;;;;;;;30.23;18.95;;;;;;;-144.51;100.00;69251.94;5024607;28;20037;-62
2021/09/24 07:29:12;;;;;;;31.02;18.83;;;;;;;-144.51;100.00;69251.94;5021434;28;20050;-62
2021/09/24 07:31:56;;;;;;;;;;;;;;;-144.51;100.00;69251.94;5027349;28;20038;-62
2021/09/24 07:34:43;;;;;;;35.47;19.70;;;;;;;-144.51;100.00;69251.94;5024684;28;19914;-63
2021/09/24 07:37:28;;;;;;;33.28;20.85;;;;;;;-144.51;100.00;69251.94;5023414;28;20041;-62
2021/09/24 07:40:13;;;;;;;30.85;19.95;;;;;;;-144.51;100.00;69251.94;5030350;28;20413;-62
2021/09/24 07:42:59;;;;;;;31.05;20.30;;;;;;;-144.51;100.00;69251.94;5022870;28;20429;-62
2021/09/24 07:45:43;;;;;;;30.15;19.88;;;;;;;-144.51;100.00;69251.94;5028013;28;20717;-62
2021/09/24 07:48:29;;;;;;;33.72;20.88;;;;;;;-144.51;100.00;69251.94;5030707;28;20036;-62
2021/09/24 07:51:16;;;;;;;31.17;20.05;;;;;;;-144.51;100.00;69251.94;5028988;28;20049;-62
2021/09/24 07:54:01;;;;;;;29.20;19.58;;;;;;;-144.51;100.00;69251.94;5027830;28;20405;-62
2021/09/24 07:56:45;;;;;;;31.00;20.17;;;;;;;-144.51;100.00;69251.94;5034484;28;20041;-62
2021/09/24 07:59:31;;;;;;;25.23;14.65;;;;;;;-144.51;100.00;69251.94;5031344;28;20481;-62
2021/09/24 08:02:16;;;;;;;22.70;15.43;;;;;;;-144.51;100.00;69251.94;5032873;28;20045;-62
2021/09/24 08:05:01;;;;;;;32.13;21.70;;;;;;;-144.51;100.00;69251.94;5033800;28;20033;-62
2021/09/24 08:07:46;;;;;;;29.25;17.30;;;;;;;-144.51;100.00;69251.94;5032048;28;20037;-62
2021/09/24 08:10:31;;;;;;;29.17;18.73;;;;;;;-144.51;100.00;69251.94;5030246;28;20045;-63
2021/09/24 08:13:17;;;;;;;32.08;20.83;;;;;;;-144.51;100.00;69251.94;5035277;28;20045;-63
2021/09/24 08:16:02;;;;;;;;;;;;;;;-144.51;100.00;69251.94;5034347;28;20042;-62
2021/09/24 08:18:47;;;;;;;31.27;19.85;;;;;;;-144.51;100.00;69251.94;5032552;28;19912;-62
2021/09/24 08:21:32;;;;;;;36.33;23.00;;;;;;;-144.51;100.00;69251.94;5032066;28;20046;-62
2021/09/24 08:24:17;;;;;;;;;;;;;;;-144.51;100.00;69251.94;5037468;28;20477;-62
2021/09/24 08:27:01;;;;;;;34.08;22.02;;;;;;;-144.51;100.00;69251.94;5030193;28;20380;-62
2021/09/24 08:29:47;;;;;;;46.45;21.27;;;;;;;-144.51;100.00;69251.94;5028593;28;20038;-62
2021/09/24 08:32:36;;;;;;;36.30;22.90;;;;;;;-144.51;100.00;69251.94;5035453;28;20037;-62
2021/09/24 08:35:22;;;;;;;40.00;22.55;;;;;;;-144.51;100.00;69251.94;5038536;28;20488;-61
2021/09/24 08:38:07;;;;;;;37.92;21.90;;;;;;;-144.51;100.00;69251.94;5031006;28;20030;-61
2021/09/24 08:40:53;;;;;;;26.05;15.38;;;;;;;-144.51;100.00;69251.94;5039849;28;20049;-62
2021/09/24 08:43:40;;;;;;;26.60;14.75;;;;;;;-144.51;100.00;69251.94;5029901;28;20433;-62
2021/09/24 08:46:26;;;;;;;20.35;13.32;;;;;;;-144.51;100.00;69251.94;5033157;28;20045;-61
2021/09/24 08:49:11;;;;;;;27.55;14.32;;;;;;;-144.51;100.00;69251.94;5030241;28;20029;-62
2021/09/24 08:51:56;;;;;;;34.17;15.63;;;;;;;-144.51;100.00;69251.94;5033691;28;20049;-62
2021/09/24 08:54:40;;;;;;;27.83;17.48;;;;;;;-144.51;100.00;69251.94;5028246;28;20420;-62
2021/09/24 08:57:25;;;;;;;38.50;16.88;;;;;;;-144.51;100.00;69251.94;5034148;28;20436;-62
2021/09/24 09:00:11;;;;;;;28.02;16.65;;;;;;;-144.51;100.00;69251.94;5032268;28;20041;-62
2021/09/24 09:03:11;;;;;;;36.97;19.65;;;;;;;-144.51;100.00;69251.94;5027723;28;20049;-62
2021/09/24 09:05:57;;;;;;;35.67;21.10;;;;;;;-144.51;100.00;69251.94;5032934;28;20038;-62
2021/09/24 09:08:43;;;;;;;21.45;13.93;;;;;;;-144.51;100.00;69251.94;5027113;28;20041;-62
2021/09/24 09:11:30;;;;;;;23.80;16.10;;;;;;;-144.51;100.00;69251.94;5029658;28;20042;-62
2021/09/24 09:14:18;;;;;;;23.30;15.00;;;;;;;-144.51;100.00;69251.94;5033873;28;20041;-62
2021/09/24 09:17:26;;;;;;;22.08;15.63;;;;;;;-144.51;100.00;69251.94;5027938;28;20417;-61
2021/09/24 09:20:11;;;;;;;23.55;15.30;;;;;;;-144.51;100.00;69251.94;5027492;28;20033;-61
2021/09/24 09:22:59;;;;;;;24.40;14.35;;;;;;;-144.51;100.00;69251.94;5027678;28;20045;-62
2021/09/24 09:25:46;;;;;;;24.52;13.45;;;;;;;-144.51;100.00;69251.94;5040456;28;20049;-61
2021/09/24 09:28:33;;;;;;;23.27;14.85;;;;;;;-144.51;100.00;69251.94;5031143;28;20421;-61
2021/09/24 09:31:27;;;;;;;29.02;14.52;;;;;;;-144.51;100.00;69251.94;5029574;28;20417;-62
2021/09/24 09:34:32;;;;;;;22.92;15.85;;;;;;;-144.51;100.00;69251.94;5025425;28;20496;-62
2021/09/24 09:37:19;;;;;;;25.57;14.03;;;;;;;-144.51;100.00;69251.94;5029268;28;20405;-62
2021/09/24 09:40:16;;;;;;;17.25;10.40;;;;;;;-144.51;100.00;69251.94;5024360;28;20700;-61
2021/09/24 09:43:01;;;;;;;27.52;11.63;;;;;;;-144.51;100.00;69251.94;5042044;28;20042;-63
2021/09/24 09:45:47;;;;;;;20.98;14.30;;;;;;;-144.51;100.00;69251.94;5028477;28;20033;-61
2021/09/24 09:48:32;;;;;;;20.98;14.43;;;;;;;-144.51;100.00;69251.94;5025242;28;20137;-61
2021/09/24 09:51:21;;;;;;;27.00;16.25;;;;;;;-144.51;100.00;69251.94;5030773;28;20034;-62
2021/09/24 09:54:08;;;;;;;309.85;60.75;;;;;;;-144.51;100.00;69251.94;5028357;28;20046;-62
2021/09/24 09:57:09;;;;;;;35.60;19.38;;;;;;;-144.51;100.00;69251.94;5025424;28;20484;-63
2021/09/24 09:59:59;;;;;;;28.02;18.02;;;;;;;-144.51;100.00;69251.94;5029639;28;20049;-62
2021/09/24 10:02:43;;;;;;;44.25;19.00;;;;;;;-144.51;100.00;69251.94;5027596;28;20034;-61
2021/09/24 10:05:33;;;;;;;40.78;18.52;;;;;;;-144.51;100.00;69251.94;5025662;28;20037;-62
2021/09/24 10:08:20;;;;;;;85.65;23.02;;;;;;;-144.51;100.00;69251.94;5034659;28;20301;-62
2021/09/24 10:11:12;;;;;;;51.22;17.00;;;;;;;-144.51;100.00;69251.94;5032747;28;20407;-62
2021/09/24 10:14:03;;;;;;;58.67;18.33;;;;;;;-144.51;100.00;69251.94;5033374;28;20033;-62
2021/09/24 10:16:48;;;;;;;44.30;18.10;;;;;;;-144.51;100.00;69251.94;5030549;28;20045;-62
2021/09/24 10:19:34;;;;;;;38.30;14.93;;;;;;;-144.51;100.00;69251.94;5027035;28;20045;-61
2021/09/24 10:22:19;;;;;;;35.55;13.82;;;;;;;-144.51;100.00;69251.94;5023878;28;20037;-62
2021/09/24 10:25:05;;;;;;;24.63;12.15;;;;;;;-144.51;100.00;69251.94;5025612;28;20045;-62
2021/09/24 10:27:51;;;;;;;23.83;12.88;;;;;;;-144.51;100.00;69251.94;5030621;28;20049;-61
2021/09/24 10:30:37;;;;;;;23.10;11.63;;;;;;;-144.51;100.00;69251.94;5028971;28;20034;-61
2021/09/24 10:33:42;;;;;;;24.55;11.98;;;;;;;-144.51;100.00;69251.94;5026672;28;20041;-61
2021/09/24 10:36:46;;;;;;;23.85;12.15;;;;;;;-144.51;100.00;69251.94;5026644;28;20041;-61
2021/09/24 10:39:31;;;;;;;21.55;11.65;;;;;;;-144.51;100.00;69251.94;5032539;28;20037;-61
2021/09/24 10:42:17;;;;;;;24.90;13.02;;;;;;;-144.51;100.00;69251.94;5024592;28;20038;-61
2021/09/24 10:45:04;;;;;;;26.70;12.27;;;;;;;-144.51;100.00;69251.94;5022612;28;20041;-63
2021/09/24 10:47:57;;;;;;;22.83;11.65;;;;;;;-144.51;100.00;69251.94;5024437;28;20034;-62
2021/09/24 10:50:48;;;;;;;41.45;10.70;;;;;;;-144.51;100.00;69251.94;5024530;28;20059;-63
2021/09/24 10:53:34;;;;;;;20.95;10.63;;;;;;;-144.51;100.00;69251.94;5023164;28;20500;-62
2021/09/24 10:56:25;;;;;;;20.13;10.00;;;;;;;-144.51;100.00;69251.94;5025748;28;20425;-61
2021/09/24 10:59:21;;;;;;;18.60;9.55;;;;;;;-144.51;100.00;69251.94;5023377;28;20037;-62
2021/09/24 11:02:41;;;;;;;15.15;8.90;;;;;;;-144.51;100.00;69251.94;5031204;28;20041;-61
2021/09/24 11:05:55;;;;;;;18.08;9.50;;;;;;;-144.51;100.00;69251.94;5029055;28;20030;-61
2021/09/24 11:08:41;;;;;;;18.55;8.70;;;;;;;-144.51;100.00;69251.94;5029358;28;20033;-62
2021/09/24 11:11:33;;;;;;;14.18;8.00;;;;;;;-144.51;100.00;69251.94;5029466;28;20052;-61
2021/09/24 11:14:33;;;;;;;19.45;9.07;;;;;;;-144.51;100.00;69251.94;5025198;28;20505;-61
2021/09/24 11:17:38;;;;;;;17.88;9.10;;;;;;;-144.51;100.00;69251.94;5026677;28;20042;-62
2021/09/24 11:20:29;;;;;;;12.67;7.07;;;;;;;-144.51;100.00;69251.94;5028361;28;20045;-62
2021/09/24 11:23:34;;;;;;;17.05;8.07;;;;;;;-144.51;100.00;69251.94;5025433;28;20276;-61
2021/09/24 11:26:25;;;;;;;16.10;7.85;;;;;;;-144.51;100.00;69251.94;5023310;28;20030;-62
2021/09/24 11:29:15;;;;;;;12.73;6.75;;;;;;;-144.51;100.00;69251.94;5021267;28;20026;-61
2021/09/24 11:32:00;;;;;;;12.38;6.78;;;;;;;-144.51;100.00;69251.94;5027298;28;20042;-62
2021/09/24 11:34:48;;;;;;;15.05;6.75;;;;;;;-144.51;100.00;69251.94;5027651;28;20056;-61
2021/09/24 11:37:34;;;;;;;10.05;7.10;;;;;;;-144.51;100.00;69251.94;5029336;28;20045;-61
2021/09/24 11:40:25;;;;;;;10.55;6.53;;;;;;;-144.51;100.00;69251.94;5029003;28;20042;-62
2021/09/24 11:43:09;;;;;;;11.02;6.70;;;;;;;-144.51;100.00;69251.94;5027022;28;20424;-62
2021/09/24 11:45:56;;;;;;;14.23;7.03;;;;;;;-144.51;100.00;69251.94;5025977;28;20041;-61
2021/09/24 11:48:41;;;;;;;10.05;6.72;;;;;;;-144.51;100.00;69251.94;5028575;28;20042;-61
2021/09/24 11:51:26;;;;;;;13.18;6.93;;;;;;;-144.51;100.00;69251.94;5028509;28;20516;-62
2021/09/24 11:54:19;;;;;;;11.48;8.48;;;;;;;-144.51;100.00;69251.94;5025080;28;20049;-62
2021/09/24 11:57:14;;;;;;;17.15;7.82;;;;;;;-144.51;100.00;69251.94;5030179;28;20033;-61
2021/09/24 11:59:59;;;;;;;10.70;5.90;;;;;;;-144.51;100.00;69251.94;5030550;28;20042;-61
2021/09/24 12:02:44;;;;;;;10.38;7.28;;;;;;;-144.51;100.00;69251.94;5025918;28;20733;-62
2021/09/24 12:05:28;;;;;;;12.43;8.05;;;;;;;-144.51;100.00;69251.94;5031187;28;20049;-61
2021/09/24 12:08:15;;;;;;;10.30;7.07;;;;;;;-144.51;100.00;69251.94;5026539;28;20037;-62
2021/09/24 12:11:02;;;;;;;13.05;6.72;;;;;;;-144.51;100.00;69251.94;5025503;28;20421;-62
2021/09/24 12:14:00;;;;;;;13.50;8.40;;;;;;;-144.51;100.00;69251.94;5029556;28;20041;-62
2021/09/24 12:16:48;;;;;;;10.45;6.45;;;;;;;-144.51;100.00;69251.94;5027016;28;20033;-61
2021/09/24 12:19:38;;;;;;;10.80;6.07;;;;;;;-144.51;100.00;69251.94;5029361;28;20405;-62
2021/09/24 12:22:23;;;;;;;13.05;6.40;;;;;;;-144.51;100.00;69251.94;5028622;28;20037;-62
2021/09/24 12:25:15;;;;;;;18.70;8.93;;;;;;;-144.51;100.00;69251.94;5027025;28;20029;-61
2021/09/24 12:28:12;;;;;;;36.75;10.50;;;;;;;-144.51;100.00;69251.94;5028838;28;20042;-61
2021/09/24 12:30:57;;;;;;;17.60;8.90;;;;;;;-144.51;100.00;69251.94;5030517;28;20037;-61
2021/09/24 12:33:51;;;;;;;14.85;8.75;;;;;;;-144.51;100.00;69251.94;5025884;28;20507;-62
2021/09/24 12:36:50;;;;;;;22.23;11.88;;;;;;;-144.51;100.00;69251.94;5029954;28;20030;-62
2021/09/24 12:39:39;;;;;;;12.70;8.45;;;;;;;-144.51;100.00;69251.94;5025786;28;20046;-61